Time;durP1;ratioP1;P1;durP2;ratioP2;P2;SDS_P1;SDS_P2;PMS_P1;PMS_P2;Temp;Humidity;BMP_temperature;BMP_pressure;BME280_temperature;BME280_humidity;BME280_pressure;Samples;Min_cycle;Max_cycle;Signal;HPM_P1;HPM_P2
2021/10/07 00:02:16;;;;;;;;;;;;;;;11.59;66.15;97399.69;4959918;29;19930;-76
2021/10/07 00:04:43;;;;;;;;;;;;;;;11.61;65.94;97393.34;4957510;29;20283;-77
2021/10/07 00:07:11;;;;;;;;;;;;;;;11.64;66.46;97398.22;4956416;29;20386;-77
2021/10/07 00:09:38;;;;;;;;;;;;;;;11.67;66.86;97399.66;4955764;28;20394;-77
2021/10/07 00:12:06;;;;;;;;;;;;;;;11.71;67.45;97395.75;4956347;29;19927;-77
2021/10/07 00:14:34;;;;;;;;;;;;;;;11.76;67.22;97393.44;4956351;29;19946;-77
2021/10/07 00:17:02;;;;;;;;;;;;;;;11.79;67.57;97398.34;4955767;29;19926;-76
2021/10/07 00:19:30;;;;;;;;;;;;;;;11.83;67.49;97393.56;4955601;28;19928;-77
2021/10/07 00:21:57;;;;;;;;;;;;;;;11.84;67.75;97393.41;4956414;29;20228;-77
2021/10/07 00:24:25;;;;;;;;;;;;;;;11.83;67.20;97394.41;4955918;29;19934;-76
2021/10/07 00:26:52;;;;;;;;;;;;;;;11.82;67.08;97397.19;4956151;29;19981;-77
2021/10/07 00:29:35;;;;;;;;;;;;;;;11.78;66.47;97396.69;4955837;28;19927;-78
2021/10/07 00:32:07;;;;;;;;;;;;;;;11.72;66.51;97390.34;4957357;28;19990;-78
2021/10/07 00:34:46;;;;;;;;;;;;;;;11.73;67.35;97388.56;4958970;29;20302;-77
2021/10/07 00:37:24;;;;;;;;;;;;;;;11.72;67.02;97389.56;4958755;29;19937;-78
2021/10/07 00:39:50;;;;;;;;;;;;;;;11.68;66.39;97388.25;4958815;28;19926;-78
2021/10/07 00:42:18;;;;;;;;;;;;;;;11.60;66.63;97393.50;4958844;29;19930;-78
2021/10/07 00:44:46;;;;;;;;;;;;;;;11.51;67.15;97390.09;4959076;29;19933;-78
2021/10/07 00:47:16;;;;;;;;;;;;;;;11.42;67.18;97391.09;4959089;28;19931;-78
2021/10/07 00:49:44;;;;;;;;;;;;;;;11.35;67.58;97401.41;4958499;28;19931;-77
2021/10/07 00:52:12;;;;;;;;;;;;;;;11.29;67.44;97402.88;4959049;29;19927;-78
2021/10/07 00:54:40;;;;;;;;;;;;;;;11.24;67.61;97406.97;4958679;29;19937;-78
2021/10/07 00:57:09;;;;;;;;;;;;;;;11.19;68.12;97404.84;4959076;29;19998;-78
2021/10/07 00:59:36;;;;;;;;;;;;;;;11.14;67.95;97404.53;4958467;28;19927;-77
2021/10/07 01:02:04;;;;;;;;;;;;;;;11.10;68.54;97409.25;4958571;29;19944;-78
2021/10/07 01:04:33;;;;;;;;;;;;;;;11.07;68.66;97414.81;4958893;29;20059;-78
2021/10/07 01:07:01;;;;;;;;;;;;;;;11.01;68.27;97415.47;4958582;29;19930;-78
2021/10/07 01:09:29;;;;;;;;;;;;;;;10.95;68.73;97408.31;4958618;28;19949;-77
2021/10/07 01:11:57;;;;;;;;;;;;;;;10.92;68.65;97406.03;4958627;29;19933;-77
2021/10/07 01:14:34;;;;;;;;;;;;;;;10.87;69.01;97403.09;4958480;29;19930;-78
2021/10/07 01:17:01;;;;;;;;;;;;;;;10.83;68.83;97393.97;4958290;29;19926;-77
2021/10/07 01:19:29;;;;;;;;;;;;;;;10.80;68.64;97399.50;4958019;28;20346;-78
2021/10/07 01:21:58;;;;;;;;;;;;;;;10.79;68.62;97401.28;4958244;29;20373;-78
2021/10/07 01:24:25;;;;;;;;;;;;;;;10.81;68.71;97395.94;4958545;29;19934;-78
2021/10/07 01:26:53;;;;;;;;;;;;;;;10.82;69.00;97394.94;4958511;29;19973;-78
2021/10/07 01:29:20;;;;;;;;;;;;;;;10.85;68.85;97394.63;4957972;28;19926;-77
2021/10/07 01:31:47;;;;;;;;;;;;;;;10.88;68.79;97399.50;4958130;29;19927;-77
2021/10/07 01:34:20;;;;;;;;;;;;;;;10.86;68.71;97396.25;4957856;29;19951;-77
2021/10/07 01:36:48;;;;;;;;;;;;;;;10.85;68.83;97392.81;4958249;29;20298;-77
2021/10/07 01:39:17;;;;;;;;;;;;;;;10.87;68.55;97397.88;4957912;28;19927;-78
2021/10/07 01:41:44;;;;;;;;;;;;;;;10.89;68.88;97407.19;4958252;28;20322;-78
2021/10/07 01:44:12;;;;;;;;;;;;;;;10.90;69.07;97398.34;4958069;29;19933;-78
2021/10/07 01:46:39;;;;;;;;;;;;;;;10.95;68.56;97408.31;4957799;29;19926;-78
2021/10/07 01:49:07;;;;;;;;;;;;;;;10.95;68.85;97408.31;4957863;28;20291;-77
2021/10/07 01:51:34;;;;;;;;;;;;;;;10.97;68.58;97416.78;4958185;29;20411;-78
2021/10/07 01:54:02;;;;;;;;;;;;;;;10.97;68.80;97401.13;4957716;29;19927;-78
2021/10/07 01:56:31;;;;;;;;;;;;;;;10.98;68.41;97405.38;4958407;29;19934;-78
2021/10/07 01:58:59;;;;;;;;;;;;;;;10.96;68.29;97396.91;4960590;28;20374;-77
2021/10/07 02:01:26;;;;;;;;;;;;;;;10.94;68.41;97404.06;4959871;29;20283;-78
2021/10/07 02:03:54;;;;;;;;;;;;;;;10.92;68.38;97400.81;4958146;29;20001;-78
2021/10/07 02:06:21;;;;;;;;;;;;;;;10.91;68.50;97393.94;4957856;28;19927;-78
2021/10/07 02:08:49;;;;;;;;;;;;;;;10.89;68.63;97398.53;4957531;28;19930;-78
2021/10/07 02:11:16;;;;;;;;;;;;;;;10.88;68.78;97399.50;4957723;28;19949;-78
2021/10/07 02:13:45;;;;;;;;;;;;;;;10.88;68.86;97399.50;4957023;29;19927;-78
2021/10/07 02:16:12;;;;;;;;;;;;;;;10.87;68.69;97403.09;4957137;29;20399;-77
2021/10/07 02:18:40;;;;;;;;;;;;;;;10.84;69.04;97395.59;4957154;29;19930;-78
2021/10/07 02:21:07;;;;;;;;;;;;;;;10.81;69.11;97396.72;4957397;29;20303;-78
2021/10/07 02:23:35;;;;;;;;;;;;;;;10.78;69.05;97396.22;4956984;29;20399;-78
2021/10/07 02:26:02;;;;;;;;;;;;;;;10.77;69.16;97392.00;4957414;29;19927;-77
2021/10/07 02:28:29;;;;;;;;;;;;;;;10.81;69.56;97393.31;4956758;29;19926;-77
2021/10/07 02:30:58;;;;;;;;;;;;;;;10.80;68.99;97397.72;4957553;28;19927;-78
2021/10/07 02:33:26;;;;;;;;;;;;;;;10.80;69.08;97389.91;4956944;29;20421;-78
2021/10/07 02:35:54;;;;;;;;;;;;;;;10.83;68.85;97391.34;4956780;29;19933;-77
2021/10/07 02:38:21;;;;;;;;;;;;;;;10.85;68.60;97398.03;4956564;29;19927;-78
2021/10/07 02:40:49;;;;;;;;;;;;;;;10.88;69.71;97389.06;4956352;28;19930;-78
2021/10/07 02:43:16;;;;;;;;;;;;;;;10.95;69.05;97397.84;4956680;29;19927;-78
2021/10/07 02:45:43;;;;;;;;;;;;;;;10.96;68.91;97409.13;4956566;29;19926;-78
2021/10/07 02:48:12;;;;;;;;;;;;;;;10.94;69.00;97409.28;4956775;29;20363;-78
2021/10/07 02:50:40;;;;;;;;;;;;;;;10.92;68.91;97408.63;4956328;28;19933;-78
2021/10/07 02:53:07;;;;;;;;;;;;;;;10.89;68.91;97412.41;4956390;28;19926;-78
2021/10/07 02:55:34;;;;;;;;;;;;;;;10.89;69.10;97411.59;4956268;29;20165;-78
2021/10/07 02:58:02;;;;;;;;;;;;;;;10.89;69.04;97408.97;4956454;29;19933;-77
2021/10/07 03:00:29;;;;;;;;;;;;;;;10.89;69.38;97411.59;4955904;28;19926;-78
2021/10/07 03:02:57;;;;;;;;;;;;;;;10.95;69.30;97413.53;4956675;29;19927;-78
2021/10/07 03:05:25;;;;;;;;;;;;;;;10.99;68.98;97414.03;4956441;29;19926;-77
2021/10/07 03:07:53;;;;;;;;;;;;;;;11.00;68.98;97416.47;4956085;29;19927;-78
2021/10/07 03:10:21;;;;;;;;;;;;;;;11.01;68.82;97419.91;4956289;28;19927;-77
2021/10/07 03:12:48;;;;;;;;;;;;;;;11.00;68.72;97429.53;4956289;29;19934;-78
2021/10/07 03:15:16;;;;;;;;;;;;;;;11.00;68.93;97429.53;4956187;29;20025;-78
2021/10/07 03:17:43;;;;;;;;;;;;;;;11.00;68.89;97424.31;4956533;29;20415;-77
2021/10/07 03:20:11;;;;;;;;;;;;;;;10.99;68.92;97425.28;4955787;28;19934;-78
2021/10/07 03:22:41;;;;;;;;;;;;;;;11.00;69.44;97428.69;4955824;29;19933;-78
2021/10/07 03:25:08;;;;;;;;;;;;;;;11.03;69.28;97433.59;4956293;29;19937;-77
2021/10/07 03:27:36;;;;;;;;;;;;;;;11.07;69.33;97430.50;4956057;29;20394;-78
2021/10/07 03:30:04;;;;;;;;;;;;;;;11.09;68.93;97427.72;4955491;28;19926;-78
2021/10/07 03:32:31;;;;;;;;;;;;;;;11.12;69.36;97428.19;4955967;29;19934;-78
2021/10/07 03:34:58;;;;;;;;;;;;;;;11.17;69.57;97434.72;4955706;29;19930;-78
2021/10/07 03:37:26;;;;;;;;;;;;;;;11.22;69.94;97438.47;4956050;29;19933;-77
2021/10/07 03:39:55;;;;;;;;;;;;;;;11.26;69.65;97438.94;4955511;28;19934;-77
2021/10/07 03:42:22;;;;;;;;;;;;;;;11.28;69.26;97443.06;4956317;29;19982;-77
2021/10/07 03:44:49;;;;;;;;;;;;;;;11.28;68.59;97450.06;4955789;29;19956;-78
2021/10/07 03:47:17;;;;;;;;;;;;;;;11.26;68.99;97447.63;4955573;29;19949;-77
2021/10/07 03:49:44;;;;;;;;;;;;;;;11.25;68.55;97442.56;4955268;28;20298;-78
2021/10/07 03:52:11;;;;;;;;;;;;;;;11.24;68.64;97440.91;4955828;29;19927;-77
2021/10/07 03:54:39;;;;;;;;;;;;;;;11.25;69.09;97450.41;4955475;29;19926;-77
2021/10/07 03:57:08;;;;;;;;;;;;;;;11.30;69.63;97455.94;4955470;29;19930;-77
2021/10/07 03:59:35;;;;;;;;;;;;;;;11.32;69.63;97460.00;4955188;28;19926;-78
2021/10/07 04:02:02;;;;;;;;;;;;;;;11.33;68.75;97460.84;4955083;29;19934;-78
2021/10/07 04:04:30;;;;;;;;;;;;;;;11.31;69.25;97460.19;4956490;29;19927;-80
2021/10/07 04:06:57;;;;;;;;;;;;;;;11.33;69.82;97463.44;4953975;28;19933;-80
2021/10/07 04:09:25;;;;;;;;;;;;;;;11.40;70.22;97468.84;4956124;28;19926;-80
2021/10/07 04:11:52;;;;;;;;;;;;;;;11.43;69.86;97469.28;4954630;29;19926;-80
2021/10/07 04:14:22;;;;;;;;;;;;;;;11.45;69.67;97472.56;4954752;29;19926;-81
2021/10/07 04:16:49;;;;;;;;;;;;;;;11.46;69.89;97476.81;4954610;29;19930;-80
2021/10/07 04:19:17;;;;;;;;;;;;;;;11.50;70.14;97483.34;4954487;28;19934;-80
2021/10/07 04:21:45;;;;;;;;;;;;;;;11.51;69.28;97481.53;4954671;29;19933;-80
2021/10/07 04:24:12;;;;;;;;;;;;;;;11.50;68.93;97478.13;4954754;29;19933;-81
2021/10/07 04:26:40;;;;;;;;;;;;;;;11.51;69.11;97481.53;4955195;29;19927;-81
2021/10/07 04:29:07;;;;;;;;;;;;;;;11.53;68.85;97479.59;4954378;28;19930;-81
2021/10/07 04:31:48;;;;;;;;;;;;;;;11.52;68.34;97477.94;4956076;29;19977;-83
2021/10/07 04:37:42;;;;;;;;;;;;;;;11.43;68.13;97484.16;4956560;29;20087;-83
2021/10/07 04:40:10;;;;;;;;;;;;;;;11.37;68.73;97480.44;4954289;28;19974;-79
2021/10/07 04:42:38;;;;;;;;;;;;;;;11.34;68.69;97488.56;4954508;29;19926;-80
2021/10/07 04:45:05;;;;;;;;;;;;;;;11.30;68.61;97489.88;4954443;29;19926;-80
2021/10/07 04:47:34;;;;;;;;;;;;;;;11.26;68.74;97493.81;4954518;29;19927;-80
2021/10/07 04:50:01;;;;;;;;;;;;;;;11.21;69.10;97491.69;4954184;28;19934;-81
2021/10/07 04:52:31;;;;;;;;;;;;;;;11.20;70.32;97490.06;4961200;29;19927;-80
2021/10/07 04:55:04;;;;;;;;;;;;;;;11.24;69.91;97498.38;4961793;28;19926;-80
2021/10/07 04:57:36;;;;;;;;;;;;;;;11.19;69.15;97493.63;4966873;28;19988;-81
2021/10/07 05:00:07;;;;;;;;;;;;;;;11.13;69.14;97492.50;4964288;28;19980;-81
2021/10/07 05:02:37;;;;;;;;;;;;;;;11.10;69.26;97497.22;4958538;29;19977;-81
2021/10/07 05:05:05;;;;;;;;;;;;;;;11.04;69.34;97496.09;4966503;29;19950;-80
2021/10/07 05:07:32;;;;;;;;;;;;;;;10.98;69.57;97499.34;4960641;29;20321;-80
2021/10/07 05:10:00;;;;;;;;;;;;;;;10.95;69.64;97494.44;4958603;28;19926;-79
2021/10/07 05:12:27;;;;;;;;;;;;;;;10.94;69.41;97495.44;4957383;29;19964;-83
2021/10/07 05:14:54;;;;;;;;;;;;;;;10.94;69.91;97492.81;4955014;29;19952;-80
2021/10/07 05:17:22;;;;;;;;;;;;;;;10.99;70.52;97500.97;4952903;28;20342;-78
2021/10/07 05:19:50;;;;;;;;;;;;;;;11.00;69.79;97500.00;4953190;28;19930;-81
2021/10/07 05:22:18;;;;;;;;;;;;;;;10.98;69.38;97504.59;4956895;29;19930;-81
2021/10/07 05:24:45;;;;;;;;;;;;;;;10.98;69.96;97507.19;4958067;29;19926;-82
2021/10/07 05:27:13;;;;;;;;;;;;;;;11.02;69.64;97516.34;4958875;29;19926;-81
2021/10/07 05:29:40;;;;;;;;;;;;;;;11.01;69.78;97521.72;4957466;28;19930;-78
2021/10/07 05:32:08;;;;;;;;;;;;;;;10.99;69.92;97516.66;4958399;29;19930;-78
2021/10/07 05:34:35;;;;;;;;;;;;;;;10.96;69.78;97511.75;4958896;29;19949;-78
2021/10/07 05:37:04;;;;;;;;;;;;;;;10.92;69.80;97520.88;4958831;29;19927;-78
2021/10/07 05:39:31;;;;;;;;;;;;;;;10.88;69.98;97515.16;4957979;28;19926;-78
2021/10/07 05:41:58;;;;;;;;;;;;;;;10.86;70.00;97516.31;4958287;29;19930;-78
2021/10/07 05:44:26;;;;;;;;;;;;;;;10.83;70.16;97516.63;4958670;29;19937;-78
2021/10/07 05:46:53;;;;;;;;;;;;;;;10.82;70.24;97526.25;4959720;29;19934;-79
2021/10/07 05:49:21;;;;;;;;;;;;;;;10.80;70.38;97516.94;4959270;28;19933;-79
2021/10/07 05:51:49;;;;;;;;;;;;;;;10.78;70.50;97514.50;4959356;29;19930;-79
2021/10/07 05:54:19;;;;;;;;;;;;;;;10.78;70.60;97519.72;4959034;29;19926;-79
2021/10/07 05:56:46;;;;;;;;;;;;;;;10.77;70.34;97519.88;4958991;29;19926;-77
2021/10/07 05:59:14;;;;;;;;;;;;;;;10.76;70.47;97523.44;4959592;28;19926;-80
2021/10/07 06:01:41;;;;;;;;;;;;;;;10.74;70.61;97535.88;4960326;29;19949;-78
2021/10/07 06:04:09;;;;;;;;;;;;;;;10.74;70.62;97533.25;4959310;29;19926;-78
2021/10/07 06:06:36;;;;;;;;;;;;;;;10.72;70.62;97536.81;4960229;29;19930;-77
2021/10/07 06:09:07;;;;;;;;;;;;;;;10.73;70.70;97537.63;4959538;28;19926;-79
2021/10/07 06:11:36;;;;;;;;;;;;;;;10.71;70.71;97537.81;4959157;29;19934;-79
2021/10/07 06:14:04;;;;;;;;;;;;;;;10.74;70.65;97538.47;4958158;29;19934;-81
2021/10/07 06:16:33;;;;;;;;;;;;;;;10.71;70.72;97530.00;4957949;29;19949;-81
2021/10/07 06:19:03;;;;;;;;;;;;;;;10.70;70.67;97528.34;4957240;28;19930;-81
2021/10/07 06:21:30;;;;;;;;;;;;;;;10.75;71.49;97527.84;4956956;29;19934;-81
2021/10/07 06:23:58;;;;;;;;;;;;;;;10.81;70.60;97534.25;4957766;29;19930;-81
2021/10/07 06:26:38;;;;;;;;;;;;;;;10.86;70.84;97531.97;4957090;29;19926;-80
2021/10/07 06:29:05;;;;;;;;;;;;;;;10.92;70.02;97534.75;4956448;28;19942;-80
2021/10/07 06:31:33;;;;;;;;;;;;;;;10.95;70.17;97535.41;4975096;23;19934;-78
2021/10/07 06:34:00;;;;;;;;;;;;;;;10.97;70.19;97533.44;4977641;28;20394;-77
2021/10/07 06:36:27;;;;;;;;;;;;;;;10.97;69.86;97536.88;4977547;28;20006;-78
2021/10/07 06:38:55;;;;;;;;;;;;;;;10.99;69.99;97542.75;4975285;28;19930;-78
2021/10/07 06:41:22;;;;;;;;;;;;;;;11.04;70.01;97550.09;4976281;28;19930;-77
2021/10/07 06:43:51;;;;;;;;;;;;;;;11.11;70.78;97556.31;4975914;28;20382;-76
2021/10/07 06:46:18;;;;;;;;;;;;;;;11.16;70.12;97558.44;4975689;28;20398;-77
2021/10/07 06:48:46;;;;;;;;;;;;;;;11.20;70.84;97555.34;4976818;28;19933;-78
2021/10/07 06:51:14;;;;;;;;;;;;;;;11.27;70.82;97563.34;4977540;28;19941;-77
2021/10/07 06:53:42;;;;;;;;;;;;;;;11.30;69.45;97565.63;4976528;28;19930;-78
2021/10/07 06:56:09;;;;;;;;;;;;;;;11.31;70.36;97567.28;4976593;28;19927;-78
2021/10/07 06:58:36;;;;;;;;;;;;;;;11.36;69.80;97575.44;4976596;28;19926;-78
2021/10/07 07:01:05;;;;;;;;;;;;;;;11.38;69.72;97572.66;4977000;28;19926;-79
2021/10/07 07:03:33;;;;;;;;;;;;;;;11.39;69.78;97571.69;4977112;28;20470;-78
2021/10/07 07:06:00;;;;;;;;;;;;;;;11.44;70.81;97567.59;4976927;28;19926;-78
2021/10/07 07:08:27;;;;;;;;;;;;;;;11.51;70.76;97573.81;4976203;28;19926;-77
2021/10/07 07:10:55;;;;;;;;;;;;;;;11.58;70.48;97578.38;4975097;28;19949;-78
2021/10/07 07:13:22;;;;;;;;;;;;;;;11.60;69.71;97585.06;4965095;28;19939;-78
2021/10/07 07:15:49;;;;;;;;;;;;;;;11.61;69.20;97583.25;4956001;29;19932;-78
2021/10/07 07:18:18;;;;;;;;;;;;;;;11.61;68.82;97578.03;4955971;29;19926;-79
2021/10/07 07:20:50;;;;;;;;;;;;;;;11.65;69.51;97589.81;4955556;29;19930;-78
2021/10/07 07:23:18;;;;;;;;;;;;;;;11.69;69.67;97581.47;4956142;29;19962;-79
2021/10/07 07:25:46;;;;;;;;;;;;;;;11.73;68.70;97585.38;4956361;29;19930;-79
2021/10/07 07:28:14;;;;;;;;;;;;;;;11.77;68.78;97592.91;4956314;29;19926;-79
2021/10/07 07:30:42;;;;;;;;;;;;;;;11.81;68.71;97584.59;4956275;29;19926;-78
2021/10/07 07:33:09;;;;;;;;;;;;;;;11.87;69.57;97585.69;4955477;29;19933;-78
2021/10/07 07:35:39;;;;;;;;;;;;;;;11.93;68.92;97596.34;4955408;29;19970;-78
2021/10/07 07:38:06;;;;;;;;;;;;;;;11.98;68.91;97589.81;4955005;29;19926;-77
2021/10/07 07:40:34;;;;;;;;;;;;;;;12.00;68.25;97598.31;4954314;28;20029;-77
2021/10/07 07:43:01;;;;;;;;;;;;;;;12.03;69.05;97603.22;4955192;29;19934;-77
2021/10/07 07:45:29;;;;;;;;;;;;;;;12.09;69.36;97610.38;4955141;29;19930;-77
2021/10/07 07:47:57;;;;;;;;;;;;;;;12.13;68.63;97614.28;4955875;29;20010;-80
2021/10/07 07:50:27;;;;;;;;;;;;;;;12.14;69.43;97608.91;4955975;29;19978;-80
2021/10/07 07:52:58;;;;;;;;;;;;;;;12.21;69.77;97616.09;4955751;29;19926;-80
2021/10/07 07:55:25;;;;;;;;;;;;;;;12.24;69.05;97620.97;4955790;29;19927;-79
2021/10/07 07:57:52;;;;;;;;;;;;;;;12.24;69.12;97624.41;4954500;28;20386;-80
2021/10/07 08:00:20;;;;;;;;;;;;;;;12.27;69.36;97624.09;4955205;29;19934;-80
2021/10/07 08:02:47;;;;;;;;;;;;;;;12.30;69.62;97621.13;4955217;29;19933;-78
2021/10/07 08:05:15;;;;;;;;;;;;;;;12.32;69.81;97624.38;4954825;29;19926;-78
2021/10/07 08:07:43;;;;;;;;;;;;;;;12.35;69.47;97631.09;4956655;29;19927;-80
2021/10/07 08:10:11;;;;;;;;;;;;;;;12.38;68.85;97627.34;4956854;29;19926;-79
2021/10/07 08:12:39;;;;;;;;;;;;;;;12.40;68.29;97634.03;4957403;29;19927;-79
2021/10/07 08:15:08;;;;;;;;;;;;;;;12.39;67.95;97632.38;4956299;29;20613;-78
2021/10/07 08:17:37;;;;;;;;;;;;;;;12.43;67.71;97630.25;4956059;29;20302;-79
2021/10/07 08:20:06;;;;;;;;;;;;;;;12.47;67.40;97631.56;4956391;29;20355;-78
2021/10/07 08:22:33;;;;;;;;;;;;;;;12.52;67.42;97629.25;4956684;29;19927;-78
2021/10/07 08:25:01;;;;;;;;;;;;;;;12.58;68.38;97636.44;4956905;29;19933;-80
2021/10/07 08:27:30;;;;;;;;;;;;;;;12.64;67.15;97630.53;4956885;29;19926;-79
2021/10/07 08:29:57;;;;;;;;;;;;;;;12.71;67.91;97633.28;4956303;29;19954;-78
2021/10/07 08:32:24;;;;;;;;;;;;;;;12.76;67.86;97636.19;4955141;29;19937;-78
2021/10/07 08:34:52;;;;;;;;;;;;;;;12.82;68.06;97639.94;4955073;29;19934;-78
2021/10/07 08:37:19;;;;;;;;;;;;;;;12.88;67.26;97628.75;4955534;29;19930;-78
2021/10/07 08:39:46;;;;;;;;;;;;;;;12.93;66.74;97632.50;4954074;29;19930;-78
2021/10/07 08:42:15;;;;;;;;;;;;;;;12.99;67.66;97636.25;4954420;29;20302;-77
2021/10/07 08:44:44;;;;;;;;;;;;;;;13.06;66.86;97642.44;4954195;29;19957;-78
2021/10/07 08:47:12;;;;;;;;;;;;;;;13.14;67.66;97639.78;4954241;29;19927;-78
2021/10/07 08:49:42;;;;;;;;;;;;;;;13.22;67.27;97635.47;4953575;29;20350;-79
2021/10/07 08:52:09;;;;;;;;;;;;;;;13.26;65.92;97642.81;4955447;28;19927;-78
2021/10/07 08:54:37;;;;;;;;;;;;;;;13.26;65.66;97640.19;4958196;29;20035;-78
2021/10/07 08:57:04;;;;;;;;;;;;;;;13.29;66.09;97642.50;4957706;29;19926;-77
2021/10/07 08:59:32;;;;;;;;;;;;;;;13.33;66.93;97642.97;4957355;29;19927;-77
2021/10/07 09:02:04;;;;;;;;;;;;;;;13.36;66.60;97642.66;4958017;29;19934;-77
2021/10/07 09:04:33;;;;;;;;;;;;;;;13.39;66.78;97647.53;4958016;29;20020;-78
2021/10/07 09:07:05;;;;;;;;;;;;;;;13.41;66.13;97644.75;4959744;28;19927;-79
2021/10/07 09:09:33;;;;;;;;;;;;;;;13.44;66.52;97649.63;4960124;29;19941;-79
2021/10/07 09:12:02;;;;;;;;;;;;;;;13.45;66.40;97646.84;4957675;29;19926;-78
2021/10/07 09:14:30;;;;;;;;;;;;;;;13.49;66.34;97642.88;4971333;29;19926;-78
2021/10/07 09:16:58;;;;;;;;;;;;;;;13.50;65.59;97639.25;4976555;29;19938;-79
2021/10/07 09:19:27;;;;;;;;;;;;;;;13.50;64.94;97636.63;4973752;29;19926;-79
2021/10/07 09:21:56;;;;;;;;;;;;;;;13.52;65.64;97639.91;4957962;29;19926;-79
2021/10/07 09:24:28;;;;;;;;;;;;;;;13.54;66.26;97645.78;4959352;29;19927;-80
2021/10/07 09:26:58;;;;;;;;;;;;;;;13.57;64.45;97649.84;4962453;28;19926;-79
2021/10/07 09:29:36;;;;;;;;;;;;;;;13.58;65.37;97652.31;4957650;29;19933;-80
2021/10/07 09:32:04;;;;;;;;;;;;;;;13.62;64.79;97646.72;4958238;29;19934;-79
2021/10/07 09:34:43;;;;;;;;;;;;;;;13.65;65.20;97652.44;4959014;28;19930;-78
2021/10/07 09:37:35;;;;;;;;;;;;;;;13.66;64.45;97646.19;4957597;29;19933;-79
2021/10/07 09:40:05;;;;;;;;;;;;;;;13.65;63.66;97649.81;4942786;29;19926;-78
2021/10/07 09:42:34;;;;;;;;;;;;;;;13.64;63.79;97644.72;4957721;29;19931;-76
2021/10/07 09:45:04;;;;;;;;;;;;;;;13.65;63.61;97651.63;4957438;29;19927;-79
2021/10/07 09:47:32;;;;;;;;;;;;;;;13.64;64.17;97647.34;4958115;29;19938;-79
2021/10/07 09:50:14;;;;;;;;;;;;;;;13.65;63.37;97651.63;4957914;29;19934;-79
2021/10/07 09:52:43;;;;;;;;;;;;;;;13.62;62.88;97646.72;4957338;29;19934;-79
2021/10/07 09:55:11;;;;;;;;;;;;;;;13.58;62.49;97647.06;4957818;29;20262;-79
2021/10/07 09:57:48;;;;;;;;;;;;;;;13.55;62.40;97636.91;4957475;29;20287;-79
2021/10/07 10:00:15;;;;;;;;;;;;;;;13.52;62.44;97646.94;4957282;29;19933;-79
2021/10/07 10:02:43;;;;;;;;;;;;;;;13.51;62.88;97650.53;4956724;28;19926;-80
2021/10/07 10:05:12;;;;;;;;;;;;;;;13.52;63.27;97644.34;4960532;28;20315;-79
2021/10/07 10:07:40;;;;;;;;;;;;;;;13.53;62.70;97644.13;4976156;28;19933;-78
2021/10/07 10:10:08;;;;;;;;;;;;;;;13.54;63.11;97643.16;4975894;28;19930;-77
2021/10/07 10:12:35;;;;;;;;;;;;;;;13.58;63.94;97647.06;4976107;28;19929;-77
2021/10/07 10:15:04;;;;;;;;;;;;;;;13.60;63.04;97652.94;4975928;28;19981;-78
2021/10/07 10:17:33;;;;;;;;;;;;;;;13.61;62.60;97651.13;4975829;28;19930;-78
2021/10/07 10:20:01;;;;;;;;;;;;;;;13.62;62.91;97652.75;4975928;28;20420;-80
2021/10/07 10:22:29;;;;;;;;;;;;;;;13.62;62.47;97650.13;4975638;28;19930;-78
2021/10/07 10:24:59;;;;;;;;;;;;;;;13.62;62.35;97649.31;4975528;28;19961;-78
2021/10/07 10:27:26;;;;;;;;;;;;;;;13.60;62.34;97652.16;4976125;28;19926;-77
2021/10/07 10:30:17;;;;;;;;;;;;;;;13.59;62.37;97659.16;4975404;28;19926;-77
2021/10/07 10:32:45;;;;;;;;;;;;;;;13.58;62.74;97652.31;4975534;28;19926;-77
2021/10/07 10:35:28;;;;;;;;;;;;;;;13.59;62.57;97661.78;4968125;28;20301;-77
2021/10/07 10:37:56;;;;;;;;;;;;;;;13.59;62.77;97658.38;4956035;29;20562;-80
2021/10/07 10:40:25;;;;;;;;;;;;;;;13.60;63.32;97658.19;4956525;29;20013;-77
2021/10/07 10:43:07;;;;;;;;;;;;;;;13.63;62.94;97656.22;4956242;29;19968;-76
2021/10/07 10:45:35;;;;;;;;;;;;;;;13.67;62.99;97655.69;4955375;29;19930;-78
2021/10/07 10:48:02;;;;;;;;;;;;;;;13.71;62.78;97656.13;4956355;29;20445;-77
2021/10/07 10:50:31;;;;;;;;;;;;;;;13.73;62.23;97660.25;4955596;29;19931;-78
2021/10/07 10:52:59;;;;;;;;;;;;;;;13.74;61.97;97650.56;4956439;29;19926;-77
2021/10/07 10:55:29;;;;;;;;;;;;;;;13.74;62.20;97653.19;4955813;29;20402;-76
2021/10/07 10:58:01;;;;;;;;;;;;;;;13.73;61.68;97657.63;4955627;29;19926;-77
2021/10/07 11:00:30;;;;;;;;;;;;;;;13.72;61.98;97658.59;4955263;29;19926;-77
2021/10/07 11:03:14;;;;;;;;;;;;;;;13.72;61.64;97655.97;4955382;29;19926;-77
2021/10/07 11:05:54;;;;;;;;;;;;;;;13.72;61.72;97652.53;4955246;29;19926;-76
2021/10/07 11:08:23;;;;;;;;;;;;;;;13.76;62.24;97653.81;4955382;29;20346;-76
2021/10/07 11:11:08;;;;;;;;;;;;;;;13.79;61.70;97656.88;4955579;29;19977;-76
2021/10/07 11:13:44;;;;;;;;;;;;;;;13.85;60.96;97660.63;4955429;29;19926;-76
2021/10/07 11:16:14;;;;;;;;;;;;;;;13.90;60.82;97655.66;4955676;28;20011;-76
2021/10/07 11:18:43;;;;;;;;;;;;;;;13.98;61.03;97652.97;4955963;29;19956;-76
2021/10/07 11:21:14;;;;;;;;;;;;;;;14.09;60.98;97645.69;4955588;29;19934;-75
2021/10/07 11:23:42;;;;;;;;;;;;;;;14.20;60.40;97640.00;4956393;29;19926;-76
2021/10/07 11:26:11;;;;;;;;;;;;;;;14.40;59.44;97653.41;4956281;29;19930;-75
2021/10/07 11:28:40;;;;;;;;;;;;;;;14.63;59.55;97650.75;4955709;29;20509;-76
2021/10/07 11:31:09;;;;;;;;;;;;;;;14.76;57.31;97650.09;4955892;29;20485;-76
2021/10/07 11:33:37;;;;;;;;;;;;;;;14.80;56.82;97641.66;4955477;29;19926;-76
2021/10/07 11:36:05;;;;;;;;;;;;;;;14.80;56.06;97641.66;4954867;29;20398;-77
2021/10/07 11:38:33;;;;;;;;;;;;;;;14.77;56.61;97636.75;4954378;29;20393;-75
2021/10/07 11:41:01;;;;;;;;;;;;;;;14.75;56.28;97641.38;4954748;29;19930;-76
2021/10/07 11:43:31;;;;;;;;;;;;;;;14.75;56.64;97632.69;4955165;29;20024;-76
2021/10/07 11:45:59;;;;;;;;;;;;;;;14.76;57.86;97634.34;4954994;29;19927;-76
2021/10/07 11:48:27;;;;;;;;;;;;;;;14.79;58.13;97640.03;4954622;28;19981;-76
2021/10/07 11:50:56;;;;;;;;;;;;;;;14.83;57.37;97629.97;4955170;29;19926;-75
2021/10/07 11:53:30;;;;;;;;;;;;;;;14.88;59.64;97638.13;4955113;29;19926;-73
2021/10/07 11:55:58;;;;;;;;;;;;;;;14.94;60.12;97626.06;4957518;29;19960;-73
2021/10/07 11:58:26;;;;;;;;;;;;;;;15.01;58.21;97621.69;4956433;29;19937;-78
2021/10/07 12:00:56;;;;;;;;;;;;;;;15.08;57.74;97627.84;4955906;29;19937;-77
2021/10/07 12:03:25;;;;;;;;;;;;;;;15.15;57.13;97623.50;4955596;29;20353;-78
2021/10/07 12:05:56;;;;;;;;;;;;;;;15.23;56.36;97620.72;4955322;29;21150;-79
2021/10/07 12:08:24;;;;;;;;;;;;;;;15.27;55.40;97620.38;4954895;29;19949;-77
2021/10/07 12:10:53;;;;;;;;;;;;;;;15.23;55.67;97625.97;4954710;29;19926;-78
2021/10/07 12:13:22;;;;;;;;;;;;;;;15.21;56.07;97625.34;4957131;29;19930;-76
2021/10/07 12:15:54;;;;;;;;;;;;;;;15.22;56.42;97623.56;4955282;29;19931;-77
2021/10/07 12:18:25;;;;;;;;;;;;;;;15.23;56.01;97623.34;4955580;29;20370;-78
2021/10/07 12:20:56;;;;;;;;;;;;;;;15.22;56.00;97629.63;4953540;28;19934;-77
2021/10/07 12:23:24;;;;;;;;;;;;;;;15.20;55.85;97621.09;4955270;29;19926;-77
2021/10/07 12:25:55;;;;;;;;;;;;;;;15.20;56.34;97618.47;4956322;29;19930;-77
2021/10/07 12:28:22;;;;;;;;;;;;;;;15.20;56.74;97621.09;4954929;29;19934;-78
2021/10/07 12:30:50;;;;;;;;;;;;;;;15.24;56.79;97617.13;4954504;29;19927;-78
2021/10/07 12:33:18;;;;;;;;;;;;;;;15.32;57.19;97612.72;4955353;29;20298;-78
2021/10/07 12:36:09;;;;;;;;;;;;;;;15.41;57.70;97616.84;5006586;23;20335;-81
2021/10/07 12:38:49;;;;;;;;;;;;;;;15.49;54.98;97614.13;4978611;28;20231;-81
2021/10/07 12:41:17;;;;;;;;;;;;;;;15.51;56.59;97611.31;4996169;28;19988;-77
2021/10/07 12:43:51;;;;;;;;;;;;;;;15.54;55.75;97609.09;4993848;28;19953;-76
2021/10/07 12:46:20;;;;;;;;;;;;;;;15.58;56.32;97612.16;4994187;28;19937;-77
2021/10/07 12:48:49;;;;;;;;;;;;;;;15.61;55.00;97609.16;4994877;28;20378;-77
2021/10/07 12:51:17;;;;;;;;;;;;;;;15.60;55.58;97605.72;4994473;28;20286;-76
2021/10/07 12:53:45;;;;;;;;;;;;;;;15.65;54.72;97608.63;4993400;28;19929;-77
2021/10/07 12:56:15;;;;;;;;;;;;;;;15.72;54.39;97607.88;4993850;28;19929;-76
2021/10/07 12:58:53;;;;;;;;;;;;;;;15.83;54.67;97617.88;4993534;28;19948;-75
2021/10/07 13:01:24;;;;;;;;;;;;;;;15.92;53.06;97608.84;4993500;28;19949;-77